Time;durP1;ratioP1;P1;durP2;ratioP2;P2;SDS_P1;SDS_P2;PMS_P1;PMS_P2;Temp;Humidity;BMP_temperature;BMP_pressure;BME280_temperature;BME280_humidity;BME280_pressure;Samples;Min_cycle;Max_cycle;Signal;HPM_P1;HPM_P2
2021/06/07 10:15:40;;;;;;;7.40;3.05;;;27.00;55.00;;;;;;5369991;23;20177;-69
2021/06/07 10:18:14;;;;;;;10.45;3.60;;;27.10;55.00;;;;;;4928511;29;20044;-58
2021/06/07 10:20:50;;;;;;;9.98;3.78;;;27.10;55.10;;;;;;4936260;29;20043;-66
2021/06/07 10:23:21;;;;;;;6.45;3.00;;;27.20;55.20;;;;;;4933178;29;20131;-66
2021/06/07 10:25:48;;;;;;;5.05;2.72;;;27.20;54.90;;;;;;4915442;29;20036;-65
2021/06/07 10:28:14;;;;;;;7.70;3.13;;;27.30;55.10;;;;;;4932645;29;20067;-65
2021/06/07 10:30:46;;;;;;;8.93;3.88;;;27.30;54.90;;;;;;4935138;29;20032;-59
2021/06/07 10:33:35;;;;;;;8.80;3.50;;;27.40;54.60;;;;;;4933423;29;20044;-68
2021/06/07 10:36:23;;;;;;;8.95;3.20;;;27.50;54.30;;;;;;4902543;29;20392;-66
2021/06/07 10:38:50;;;;;;;6.72;3.03;;;27.50;54.20;;;;;;4917994;29;20046;-66
2021/06/07 10:41:28;;;;;;;5.13;2.85;;;27.50;54.10;;;;;;4917984;29;20039;-68
2021/06/07 10:43:59;;;;;;;10.20;3.08;;;27.50;54.80;;;;;;4934955;29;20044;-65
2021/06/07 10:46:28;;;;;;;9.23;3.50;;;27.50;54.20;;;;;;4918356;29;20518;-66
2021/06/07 10:48:55;;;;;;;6.95;3.53;;;27.50;54.20;;;;;;4934700;29;20032;-65
2021/06/07 10:51:33;;;;;;;8.43;3.13;;;27.50;54.40;;;;;;4902532;29;20360;-65
2021/06/07 10:54:31;;;;;;;6.90;2.83;;;27.50;54.60;;;;;;4917971;29;20042;-65
2021/06/07 10:57:22;;;;;;;7.10;3.30;;;27.50;54.70;;;;;;4917932;29;20467;-64
2021/06/07 10:59:50;;;;;;;8.07;3.42;;;27.50;54.80;;;;;;4934702;29;20047;-64
2021/06/07 11:02:17;;;;;;;5.22;2.90;;;27.60;55.10;;;;;;4933623;29;20038;-64
2021/06/07 11:04:44;;;;;;;8.63;3.95;;;27.60;55.10;;;;;;4918216;29;20051;-63
2021/06/07 11:07:11;;;;;;;7.82;3.40;;;27.60;55.10;;;;;;4934773;29;20031;-64
2021/06/07 11:10:15;;;;;;;8.38;4.32;;;27.60;55.30;;;;;;4933621;29;20044;-64
2021/06/07 11:12:41;;;;;;;7.97;3.33;;;27.70;55.40;;;;;;4934271;29;20040;-64
2021/06/07 11:15:13;;;;;;;7.70;3.70;;;27.70;56.00;;;;;;4934303;29;20048;-64
2021/06/07 11:17:39;;;;;;;10.07;4.13;;;27.60;55.60;;;;;;4917551;29;20047;-55
2021/06/07 11:20:06;;;;;;;6.43;4.30;;;27.70;55.70;;;;;;4934059;29;20044;-66
2021/06/07 11:23:09;;;;;;;6.90;3.78;;;27.70;55.80;;;;;;4934766;29;20043;-65
2021/06/07 11:25:49;;;;;;;7.75;3.28;;;27.60;55.90;;;;;;4934432;29;20487;-63
2021/06/07 11:28:39;;;;;;;8.35;3.33;;;27.70;55.90;;;;;;4935039;29;20066;-62
2021/06/07 11:31:18;;;;;;;16.85;3.65;;;27.70;55.90;;;;;;4934088;29;20492;-62
2021/06/07 11:33:58;;;;;;;9.32;3.60;;;27.70;55.80;;;;;;4902090;29;20428;-63
2021/06/07 11:36:38;;;;;;;21.83;5.20;;;27.80;55.80;;;;;;4934507;29;20043;-62
2021/06/07 11:39:07;;;;;;;16.63;4.68;;;27.80;55.70;;;;;;4917258;29;20393;-63
2021/06/07 11:41:56;;;;;;;14.50;4.32;;;27.90;55.70;;;;;;4933827;29;20051;-63
2021/06/07 11:44:44;;;;;;;20.77;5.55;;;27.90;55.60;;;;;;4933194;29;20139;-63
2021/06/07 11:47:11;;;;;;;18.52;4.05;;;28.00;55.60;;;;;;4934281;29;20477;-63
2021/06/07 11:49:57;;;;;;;14.65;3.13;;;28.00;55.50;;;;;;4917263;29;20559;-63
2021/06/07 11:52:33;;;;;;;6.90;3.67;;;28.10;55.50;;;;;;4934376;29;20114;-63
2021/06/07 11:55:31;;;;;;;11.77;4.20;;;28.10;55.30;;;;;;4932914;29;20047;-63
2021/06/07 11:58:10;;;;;;;9.63;3.42;;;28.10;55.30;;;;;;4933904;29;20059;-63
2021/06/07 12:00:40;;;;;;;10.03;3.53;;;28.20;55.20;;;;;;4932984;29;20035;-63
2021/06/07 12:03:15;;;;;;;15.05;4.10;;;28.20;55.20;;;;;;4933947;29;20297;-63
2021/06/07 12:05:42;;;;;;;11.63;3.90;;;28.20;55.20;;;;;;4901105;29;20130;-63
2021/06/07 12:08:14;;;;;;;9.10;3.50;;;28.30;55.20;;;;;;4915006;29;20649;-63
2021/06/07 12:10:41;;;;;;;7.00;3.15;;;28.30;55.10;;;;;;4932562;29;20099;-63
2021/06/07 12:13:27;;;;;;;8.82;3.55;;;28.30;55.10;;;;;;4913697;29;20059;-63
2021/06/07 12:16:01;;;;;;;6.60;3.47;;;28.40;55.10;;;;;;4933624;29;20051;-63
2021/06/07 12:18:33;;;;;;;8.48;6.10;;;28.40;55.10;;;;;;4933998;29;20550;-62
2021/06/07 12:21:19;;;;;;;8.13;5.82;;;28.40;55.10;;;;;;4933802;29;20096;-62
2021/06/07 12:23:57;;;;;;;9.40;6.32;;;28.40;55.10;;;;;;4933653;29;20402;-63
2021/06/07 12:29:20;;;;;;;7.95;6.00;;;28.50;55.00;;;;;;4937960;29;20377;-64
2021/06/07 12:32:23;;;;;;;10.68;5.90;;;28.50;55.60;;;;;;4938131;29;20447;-63
2021/06/07 12:35:16;;;;;;;8.02;6.10;;;28.50;55.10;;;;;;4860353;29;20053;-63
2021/06/07 12:38:09;;;;;;;10.82;6.00;;;28.50;55.00;;;;;;4844753;29;20053;-63
2021/06/07 12:40:41;;;;;;;8.95;5.28;;;28.60;55.00;;;;;;4844563;29;20046;-64
2021/06/07 12:43:07;;;;;;;7.20;5.60;;;28.60;55.00;;;;;;4844918;29;20054;-64
2021/06/07 12:45:37;;;;;;;9.35;5.45;;;28.60;55.00;;;;;;4829454;29;20037;-63
2021/06/07 12:48:10;;;;;;;11.55;5.70;;;28.60;55.00;;;;;;4860043;29;20056;-63
2021/06/07 12:50:37;;;;;;;6.05;5.00;;;28.60;55.00;;;;;;4860127;29;20144;-63
2021/06/07 12:53:03;;;;;;;6.07;4.60;;;28.60;55.00;;;;;;4844815;29;20048;-64
2021/06/07 12:55:32;;;;;;;8.27;4.57;;;28.70;55.00;;;;;;4859982;29;20041;-63
2021/06/07 12:58:04;;;;;;;8.18;4.75;;;28.70;55.00;;;;;;4860042;29;20119;-63
2021/06/07 13:00:33;;;;;;;11.13;5.25;;;28.70;55.00;;;;;;4860153;29;20053;-63
2021/06/07 13:03:01;;;;;;;8.55;4.07;;;28.70;54.90;;;;;;4859872;29;20124;-65
2021/06/07 13:05:37;;;;;;;9.13;4.45;;;28.70;55.00;;;;;;4828927;29;20037;-63
2021/06/07 13:08:21;;;;;;;9.63;4.15;;;28.70;54.90;;;;;;4859891;29;20057;-63
2021/06/07 13:10:55;;;;;;;8.90;4.22;;;28.70;55.00;;;;;;4882557;29;20048;-62
2021/06/07 13:13:27;;;;;;;6.72;4.43;;;28.80;55.00;;;;;;4901689;29;20052;-63
2021/06/07 13:16:11;;;;;;;7.95;4.30;;;28.80;55.10;;;;;;4910910;29;20539;-66
2021/06/07 13:18:57;;;;;;;7.50;3.92;;;28.80;55.10;;;;;;4917014;29;20129;-66
2021/06/07 13:21:52;;;;;;;9.20;4.55;;;28.90;55.00;;;;;;4918230;29;20040;-71
2021/06/07 13:24:27;;;;;;;10.98;4.45;;;28.90;55.00;;;;;;4934038;29;20457;-60
2021/06/07 13:26:56;;;;;;;10.27;3.75;;;28.90;54.90;;;;;;4917993;29;20115;-62
2021/06/07 13:29:36;;;;;;;6.70;3.40;;;29.00;54.90;;;;;;4929335;29;20436;-53
2021/06/07 13:32:11;;;;;;;7.32;3.65;;;29.00;54.80;;;;;;4935782;29;20040;-60
2021/06/07 13:34:39;;;;;;;8.25;3.40;;;29.00;54.80;;;;;;4916475;29;20040;-60
2021/06/07 13:37:16;;;;;;;9.15;3.25;;;29.00;54.70;;;;;;4899530;29;20400;-60
2021/06/07 13:39:42;;;;;;;6.88;3.58;;;29.10;54.50;;;;;;4916294;29;20056;-61
2021/06/07 13:42:09;;;;;;;7.80;3.83;;;29.10;54.50;;;;;;4917934;29;20052;-61
2021/06/07 13:44:55;;;;;;;8.77;4.50;;;29.10;54.40;;;;;;4927624;29;20048;-59
2021/06/07 13:47:26;;;;;;;6.10;3.45;;;29.10;54.30;;;;;;4917124;29;20051;-60
2021/06/07 13:50:15;;;;;;;7.47;3.13;;;29.10;54.20;;;;;;4932191;29;20043;-58
2021/06/07 13:52:51;;;;;;;8.93;3.15;;;29.10;54.00;;;;;;4917466;29;20051;-58
2021/06/07 13:55:20;;;;;;;6.80;3.50;;;29.10;53.90;;;;;;4917187;29;20048;-66
2021/06/07 13:58:22;;;;;;;9.33;3.30;;;29.20;53.90;;;;;;4931606;29;20099;-63
2021/06/07 14:00:56;;;;;;;6.30;3.30;;;29.20;54.10;;;;;;4876976;29;20037;-59
2021/06/07 14:03:24;;;;;;;5.88;3.00;;;29.20;53.70;;;;;;4877650;29;20485;-58
2021/06/07 14:05:53;;;;;;;8.23;2.60;;;29.20;53.60;;;;;;4877097;29;20089;-60
2021/06/07 14:08:43;;;;;;;5.30;2.67;;;29.20;53.30;;;;;;4870458;29;20097;-61
2021/06/07 14:11:14;;;;;;;6.18;3.25;;;29.20;53.40;;;;;;4859287;29;20093;-62
2021/06/07 14:13:42;;;;;;;3.42;2.63;;;29.30;53.10;;;;;;4891704;29;20044;-62
2021/06/07 14:16:09;;;;;;;5.57;2.88;;;29.30;53.10;;;;;;4893597;29;20416;-62
2021/06/07 14:18:36;;;;;;;7.35;2.90;;;29.30;52.90;;;;;;4893399;29;20047;-61
2021/06/07 14:21:06;;;;;;;7.07;2.97;;;29.30;52.60;;;;;;4877481;29;20037;-62
2021/06/07 14:26:46;;;;;;;3.38;2.63;;;29.30;51.90;;;;;;4894723;29;20548;-61
2021/06/07 14:29:12;;;;;;;6.63;2.88;;;29.30;51.90;;;;;;4879780;29;20041;-61
2021/06/07 14:31:38;;;;;;;4.50;2.53;;;29.30;51.80;;;;;;4895301;29;20033;-60
2021/06/07 14:34:04;;;;;;;7.00;2.70;;;29.30;51.70;;;;;;4893204;29;20469;-60
2021/06/07 14:36:30;;;;;;;6.15;2.78;;;29.20;51.60;;;;;;4916552;29;20042;-61
2021/06/07 14:38:56;;;;;;;7.88;3.13;;;29.20;51.70;;;;;;4935825;29;20039;-60
2021/06/07 14:41:23;;;;;;;7.15;3.40;;;29.20;51.80;;;;;;4934606;29;20100;-63
2021/06/07 14:43:53;;;;;;;6.70;2.75;;;29.20;51.90;;;;;;4935376;29;20043;-63
2021/06/07 14:46:21;;;;;;;13.48;3.92;;;29.20;51.50;;;;;;4948981;28;20036;-62
2021/06/07 14:48:47;;;;;;;15.73;3.45;;;29.20;51.50;;;;;;4933848;29;20066;-63
2021/06/07 14:51:14;;;;;;;9.15;2.95;;;29.20;51.70;;;;;;4949596;28;20048;-62
2021/06/07 14:53:42;;;;;;;18.95;4.32;;;29.20;51.60;;;;;;4932628;29;20083;-63
2021/06/07 14:56:09;;;;;;;13.25;2.83;;;29.20;51.20;;;;;;4933059;29;20032;-63
2021/06/07 14:58:36;;;;;;;11.43;2.80;;;29.10;50.80;;;;;;4934272;29;20043;-62
2021/06/07 15:01:04;;;;;;;11.30;3.20;;;29.10;50.80;;;;;;4934827;29;20539;-62
2021/06/07 15:03:30;;;;;;;14.50;3.22;;;29.10;50.70;;;;;;4933579;29;20040;-62
2021/06/07 15:05:56;;;;;;;18.63;3.13;;;29.10;50.70;;;;;;4934711;29;20046;-65
2021/06/07 15:08:23;;;;;;;10.93;3.08;;;29.10;50.70;;;;;;4933407;29;20032;-64
2021/06/07 15:10:50;;;;;;;14.23;3.25;;;29.10;50.70;;;;;;4949877;28;20935;-65
2021/06/07 15:13:16;;;;;;;12.95;3.03;;;29.10;50.90;;;;;;4933696;29;20046;-64
2021/06/07 15:16:08;;;;;;;8.73;3.10;;;29.00;50.90;;;;;;4935997;29;20058;-64
2021/06/07 15:18:34;;;;;;;6.65;2.65;;;29.00;51.10;;;;;;4953333;28;20577;-65
2021/06/07 15:21:00;;;;;;;11.93;3.10;;;29.00;51.00;;;;;;4936901;29;20126;-62
2021/06/07 15:23:26;;;;;;;7.68;3.03;;;29.00;51.00;;;;;;4953972;28;20046;-64
2021/06/07 15:25:53;;;;;;;7.05;2.65;;;28.90;50.90;;;;;;4939758;29;20055;-64
2021/06/07 15:28:19;;;;;;;7.30;2.90;;;29.00;50.90;;;;;;4953416;28;20046;-65
2021/06/07 15:30:46;;;;;;;6.40;3.13;;;28.90;50.80;;;;;;4936749;29;20106;-64
2021/06/07 15:33:12;;;;;;;6.65;2.63;;;28.90;50.90;;;;;;4936545;29;20439;-64
2021/06/07 15:35:49;;;;;;;7.53;2.83;;;28.90;50.90;;;;;;4953755;28;20031;-64
2021/06/07 15:38:33;;;;;;;5.85;2.75;;;28.90;50.80;;;;;;4936379;29;20058;-64
2021/06/07 15:41:03;;;;;;;6.88;2.72;;;28.90;50.90;;;;;;4954159;28;20039;-64
2021/06/07 15:43:32;;;;;;;3.88;2.22;;;28.80;50.80;;;;;;4953938;29;20053;-63
2021/06/07 15:45:59;;;;;;;5.63;3.00;;;28.80;50.90;;;;;;4952365;28;20027;-63
2021/06/07 15:48:27;;;;;;;5.30;2.42;;;28.80;51.00;;;;;;4935569;29;20071;-65
2021/06/07 15:50:54;;;;;;;5.13;2.80;;;28.80;51.00;;;;;;4952833;28;20372;-64
2021/06/07 15:53:21;;;;;;;4.90;2.33;;;28.80;51.10;;;;;;4953015;28;20039;-64
2021/06/07 15:55:48;;;;;;;7.93;2.95;;;28.80;51.10;;;;;;4953575;28;20476;-63
2021/06/07 15:58:14;;;;;;;9.07;2.78;;;28.70;51.10;;;;;;4953124;28;20059;-64
2021/06/07 16:00:41;;;;;;;6.68;2.50;;;28.70;51.10;;;;;;4952971;28;20043;-64
2021/06/07 16:03:07;;;;;;;6.22;2.80;;;28.70;51.10;;;;;;4953241;28;20475;-64
2021/06/07 16:05:34;;;;;;;6.95;2.53;;;28.70;51.20;;;;;;4936406;29;20035;-63
2021/06/07 16:08:00;;;;;;;5.38;2.88;;;28.70;51.20;;;;;;4952327;28;20062;-65
2021/06/07 16:10:26;;;;;;;5.50;2.45;;;28.60;51.20;;;;;;4936233;29;20495;-65
2021/06/07 16:12:52;;;;;;;6.57;2.42;;;28.60;51.30;;;;;;4953184;28;20043;-64
2021/06/07 16:15:20;;;;;;;2.78;2.33;;;28.60;51.30;;;;;;4944397;29;20040;-64
2021/06/07 16:18:01;;;;;;;5.93;2.72;;;28.60;51.40;;;;;;4931626;29;20487;-64
2021/06/07 16:23:22;;;;;;;5.28;2.78;;;28.60;51.40;;;;;;4932805;29;20036;-63
2021/06/07 16:25:53;;;;;;;4.25;2.20;;;28.60;51.40;;;;;;4916964;29;20040;-63
2021/06/07 16:28:23;;;;;;;6.40;2.70;;;28.50;51.30;;;;;;4933997;29;20047;-64
2021/06/07 16:30:50;;;;;;;6.07;2.47;;;28.50;51.40;;;;;;4934246;29;20183;-63
2021/06/07 16:33:16;;;;;;;3.85;2.38;;;28.50;51.40;;;;;;4933604;29;20497;-62
2021/06/07 16:35:44;;;;;;;4.15;2.63;;;28.50;51.40;;;;;;4931514;29;20035;-63
2021/06/07 16:38:10;;;;;;;5.07;2.65;;;28.50;51.40;;;;;;4932831;29;20499;-63
2021/06/07 16:40:36;;;;;;;10.73;2.85;;;28.50;51.50;;;;;;4932726;29;20127;-61
2021/06/07 16:43:02;;;;;;;4.65;2.60;;;28.50;51.40;;;;;;4933764;29;20051;-60
2021/06/07 16:45:29;;;;;;;7.05;2.63;;;28.40;51.10;;;;;;4932367;29;20047;-59
2021/06/07 16:47:55;;;;;;;8.75;3.95;;;28.40;51.00;;;;;;4933549;29;20531;-59
2021/06/07 16:50:21;;;;;;;6.50;2.70;;;28.40;50.90;;;;;;4934237;29;20044;-61
2021/06/07 16:52:52;;;;;;;8.30;2.55;;;28.30;50.50;;;;;;4933675;29;20032;-59
2021/06/07 16:55:19;;;;;;;4.65;1.80;;;28.30;49.10;;;;;;4914513;29;20122;-60
2021/06/07 16:57:45;;;;;;;6.18;2.47;;;28.20;48.80;;;;;;4933546;29;20135;-59
2021/06/07 17:00:13;;;;;;;6.13;2.03;;;28.00;49.50;;;;;;4917875;29;20036;-59
2021/06/07 17:02:39;;;;;;;5.95;2.10;;;28.00;48.70;;;;;;4933769;29;20032;-60
2021/06/07 17:05:07;;;;;;;7.85;2.63;;;27.90;48.80;;;;;;4934097;29;20040;-59
2021/06/07 17:07:33;;;;;;;6.57;2.13;;;27.90;48.80;;;;;;4916765;29;20122;-60
2021/06/07 17:09:59;;;;;;;5.60;2.40;;;27.90;49.10;;;;;;4933056;29;20114;-60
2021/06/07 17:12:26;;;;;;;6.15;2.65;;;27.90;49.40;;;;;;4934654;29;20027;-60
2021/06/07 17:14:56;;;;;;;7.75;2.65;;;27.80;48.80;;;;;;4936555;28;20055;-59
2021/06/07 17:17:23;;;;;;;7.75;3.53;;;27.90;48.90;;;;;;4935484;29;20393;-59
2021/06/07 17:19:51;;;;;;;6.53;2.53;;;27.80;48.30;;;;;;4936815;29;20111;-59
2021/06/07 17:22:17;;;;;;;3.78;2.00;;;27.70;48.50;;;;;;4935827;29;20428;-59
2021/06/07 17:24:44;;;;;;;6.60;2.60;;;27.70;49.70;;;;;;4936065;29;20100;-59
2021/06/07 17:27:10;;;;;;;6.28;2.83;;;27.70;49.40;;;;;;4918064;29;20043;-58
2021/06/07 17:29:37;;;;;;;8.25;3.00;;;27.60;49.40;;;;;;4936894;29;20472;-60
2021/06/07 17:32:04;;;;;;;4.32;2.55;;;27.60;49.70;;;;;;4936265;29;20061;-60
2021/06/07 17:34:30;;;;;;;10.05;3.03;;;27.70;50.00;;;;;;4935335;29;20028;-60
2021/06/07 17:36:56;;;;;;;4.60;3.00;;;27.70;50.10;;;;;;4934922;29;20051;-60
2021/06/07 17:39:22;;;;;;;6.60;3.33;;;27.70;50.30;;;;;;4936194;29;20110;-62
2021/06/07 17:41:49;;;;;;;8.52;3.35;;;27.60;50.60;;;;;;4935850;29;20036;-60
2021/06/07 17:44:15;;;;;;;6.50;2.72;;;27.60;50.70;;;;;;4933407;29;20514;-59
2021/06/07 17:46:42;;;;;;;5.95;2.90;;;27.60;50.80;;;;;;4935830;29;20043;-59
2021/06/07 17:49:08;;;;;;;5.88;2.67;;;27.60;50.90;;;;;;4936879;29;20028;-58
2021/06/07 17:51:34;;;;;;;7.63;2.70;;;27.60;51.20;;;;;;4933655;29;20067;-60
2021/06/07 17:54:00;;;;;;;8.40;2.55;;;27.60;51.30;;;;;;4919432;29;20055;-61
2021/06/07 17:56:27;;;;;;;4.95;2.65;;;27.60;51.60;;;;;;4936581;29;20043;-60
2021/06/07 17:58:53;;;;;;;7.95;3.00;;;27.50;51.70;;;;;;4918628;29;20124;-60
2021/06/07 18:01:19;;;;;;;7.68;3.33;;;27.60;51.90;;;;;;4918104;29;20040;-60
2021/06/07 18:03:45;;;;;;;5.55;3.20;;;27.50;51.90;;;;;;4935745;29;20509;-59
2021/06/07 18:06:11;;;;;;;5.82;2.90;;;27.40;52.10;;;;;;4935515;29;20039;-59
2021/06/07 18:08:37;;;;;;;6.13;2.78;;;27.40;52.40;;;;;;4935877;29;20115;-60
2021/06/07 18:11:06;;;;;;;7.57;3.28;;;27.40;52.40;;;;;;4934356;29;20044;-60
2021/06/07 18:13:33;;;;;;;5.50;2.90;;;27.40;52.70;;;;;;4935821;29;20039;-61
2021/06/07 18:16:03;;;;;;;7.20;3.13;;;27.40;52.80;;;;;;4936210;29;20055;-60
2021/06/07 18:18:31;;;;;;;9.13;3.17;;;27.40;52.70;;;;;;4932438;29;20059;-61
2021/06/07 18:20:57;;;;;;;5.28;3.05;;;27.30;52.60;;;;;;4934938;29;20043;-61
2021/06/07 18:23:23;;;;;;;7.43;2.97;;;27.40;52.70;;;;;;4934791;29;20046;-61
2021/06/07 18:25:49;;;;;;;7.80;4.03;;;27.40;52.90;;;;;;4934985;29;20027;-60
2021/06/07 18:28:15;;;;;;;7.68;3.47;;;27.40;53.20;;;;;;4917995;29;20102;-60
2021/06/07 18:30:41;;;;;;;8.35;2.65;;;27.40;53.00;;;;;;4934152;29;20032;-60
2021/06/07 18:33:07;;;;;;;8.40;3.35;;;27.40;53.30;;;;;;4934556;29;20452;-61
2021/06/07 18:35:33;;;;;;;4.78;2.70;;;27.40;53.40;;;;;;4918227;29;20059;-60
2021/06/07 18:37:59;;;;;;;5.53;2.85;;;27.40;53.40;;;;;;4918237;29;20456;-60
2021/06/07 18:40:25;;;;;;;8.25;3.40;;;27.40;53.40;;;;;;4934832;29;20110;-61
2021/06/07 18:42:56;;;;;;;9.38;3.55;;;27.40;53.50;;;;;;4935160;29;20133;-60
2021/06/07 18:45:22;;;;;;;6.95;3.35;;;27.40;53.70;;;;;;4933907;29;20126;-61
2021/06/07 18:47:50;;;;;;;6.97;3.25;;;27.40;53.60;;;;;;4917045;29;20119;-61
2021/06/07 18:50:16;;;;;;;9.02;3.65;;;27.50;53.80;;;;;;4934847;29;20452;-61
2021/06/07 18:52:48;;;;;;;12.05;4.78;;;27.50;53.80;;;;;;4933811;29;20031;-60
2021/06/07 18:55:17;;;;;;;8.07;4.25;;;27.50;54.20;;;;;;4917556;29;20130;-60
2021/06/07 18:57:43;;;;;;;12.85;4.85;;;27.50;54.20;;;;;;4934354;29;20051;-61
2021/06/07 19:00:10;;;;;;;6.97;3.60;;;27.50;54.20;;;;;;4934858;29;20551;-61
2021/06/07 19:02:36;;;;;;;6.53;3.40;;;27.50;54.00;;;;;;4933825;29;20036;-60
2021/06/07 19:05:03;;;;;;;7.13;3.55;;;27.50;54.00;;;;;;4934944;29;20035;-61
2021/06/07 19:07:29;;;;;;;9.57;3.90;;;27.50;54.20;;;;;;4934449;29;20042;-61
2021/06/07 19:09:55;;;;;;;6.30;3.90;;;27.50;54.10;;;;;;4933939;29;20043;-61
2021/06/07 19:12:22;;;;;;;8.25;3.58;;;27.50;54.40;;;;;;4934759;29;20492;-60
2021/06/07 19:14:52;;;;;;;8.98;3.75;;;27.50;54.40;;;;;;4916632;29;20075;-60
2021/06/07 19:17:22;;;;;;;6.53;3.80;;;27.50;54.50;;;;;;4933591;29;20083;-61
2021/06/07 19:19:49;;;;;;;8.80;4.00;;;27.50;54.60;;;;;;4933899;29;20666;-61
2021/06/07 19:22:15;;;;;;;10.00;3.85;;;27.50;54.60;;;;;;4933854;29;20032;-60
2021/06/07 19:24:42;;;;;;;7.38;4.30;;;27.40;54.70;;;;;;4933887;29;20064;-61
2021/06/07 19:27:09;;;;;;;7.78;3.53;;;27.40;54.90;;;;;;4934018;29;20027;-61
2021/06/07 19:29:38;;;;;;;5.82;4.10;;;27.40;55.00;;;;;;4933949;29;20047;-61
2021/06/07 19:32:04;;;;;;;10.52;4.60;;;27.40;55.30;;;;;;4932543;29;20039;-60
2021/06/07 19:34:30;;;;;;;7.90;4.13;;;27.30;55.30;;;;;;4933445;29;20032;-61
2021/06/07 19:36:57;;;;;;;13.20;6.93;;;27.30;55.60;;;;;;4934664;29;20044;-61
2021/06/07 19:39:23;;;;;;;12.13;4.75;;;27.20;56.10;;;;;;4933681;29;20051;-61
2021/06/07 19:41:49;;;;;;;7.97;4.10;;;27.20;56.10;;;;;;4933991;29;20475;-61
2021/06/07 19:44:15;;;;;;;8.07;3.80;;;27.20;56.10;;;;;;4933433;29;20035;-60
2021/06/07 19:46:41;;;;;;;11.48;5.95;;;27.20;56.10;;;;;;4933611;29;20394;-61
2021/06/07 19:49:08;;;;;;;7.38;5.32;;;27.20;56.10;;;;;;4916702;29;20040;-61
2021/06/07 19:51:34;;;;;;;13.60;4.63;;;27.20;56.10;;;;;;4915453;29;20031;-61
2021/06/07 19:54:01;;;;;;;10.27;4.43;;;27.20;56.10;;;;;;4916440;29;20052;-61
2021/06/07 19:56:29;;;;;;;10.48;4.40;;;27.20;56.30;;;;;;4899605;29;20039;-61
2021/06/07 19:58:56;;;;;;;9.82;6.15;;;27.20;56.20;;;;;;4934148;29;20048;-59
2021/06/07 20:01:23;;;;;;;11.70;5.20;;;27.20;56.00;;;;;;4931151;29;20059;-61
2021/06/07 20:03:50;;;;;;;8.18;4.22;;;27.20;56.00;;;;;;4932163;29;20035;-59
2021/06/07 20:06:16;;;;;;;14.52;5.28;;;27.20;55.70;;;;;;4933590;29;20034;-59
2021/06/07 20:08:43;;;;;;;8.98;5.07;;;27.20;55.70;;;;;;4933101;29;20036;-62
2021/06/07 20:11:09;;;;;;;10.88;6.18;;;27.20;55.70;;;;;;4932904;29;20032;-61
2021/06/07 20:13:36;;;;;;;9.65;4.97;;;27.30;55.80;;;;;;4909246;29;20112;-60
2021/06/07 20:16:02;;;;;;;9.75;5.65;;;27.30;55.50;;;;;;4914933;29;20548;-61
2021/06/07 20:18:28;;;;;;;12.35;5.80;;;27.30;55.50;;;;;;4911270;29;20051;-60
2021/06/07 20:20:54;;;;;;;7.72;4.47;;;27.30;55.50;;;;;;4932387;29;20046;-60
2021/06/07 20:23:22;;;;;;;7.28;4.15;;;27.30;55.40;;;;;;4933655;29;20504;-60
2021/06/07 20:25:49;;;;;;;9.68;4.85;;;27.40;55.40;;;;;;4916619;29;20123;-60
2021/06/07 20:28:15;;;;;;;7.82;4.05;;;27.40;55.50;;;;;;4933291;29;20036;-61
2021/06/07 20:30:42;;;;;;;8.50;4.20;;;27.30;55.40;;;;;;4933681;29;20063;-61
2021/06/07 20:33:08;;;;;;;7.13;4.50;;;27.40;55.50;;;;;;4933874;29;20095;-61
2021/06/07 20:35:34;;;;;;;11.13;5.40;;;27.40;55.30;;;;;;4932503;29;20496;-61
2021/06/07 20:38:01;;;;;;;14.70;5.88;;;27.40;55.30;;;;;;4933679;29;20052;-61
2021/06/07 20:40:27;;;;;;;11.93;5.20;;;27.40;55.40;;;;;;4933520;29;20032;-61
2021/06/07 20:42:54;;;;;;;10.82;4.65;;;27.40;55.40;;;;;;4916741;29;20684;-61
2021/06/07 20:45:23;;;;;;;14.15;5.60;;;27.40;55.30;;;;;;4933315;29;20472;-61
2021/06/07 20:47:49;;;;;;;11.38;5.55;;;27.40;55.30;;;;;;4937076;29;20095;-60
2021/06/07 20:50:16;;;;;;;9.45;5.82;;;27.40;55.20;;;;;;4920198;29;20040;-61
2021/06/07 20:52:42;;;;;;;13.88;6.35;;;27.50;55.30;;;;;;4920190;29;20040;-61
2021/06/07 20:55:09;;;;;;;13.85;6.97;;;27.50;55.20;;;;;;4937072;29;20035;-61
2021/06/07 20:57:36;;;;;;;14.82;5.72;;;27.40;55.10;;;;;;4936308;29;20407;-61
2021/06/07 21:00:04;;;;;;;12.55;5.95;;;27.50;54.90;;;;;;4936452;29;20082;-64
2021/06/07 21:02:30;;;;;;;8.85;5.10;;;27.50;54.80;;;;;;4933029;29;20031;-61
2021/06/07 21:04:56;;;;;;;9.57;4.90;;;27.50;54.70;;;;;;4935747;29;20063;-63
2021/06/07 21:07:22;;;;;;;12.73;5.65;;;27.50;54.60;;;;;;4935871;29;20063;-63
2021/06/07 21:09:50;;;;;;;11.70;5.25;;;27.40;54.50;;;;;;4919578;29;20039;-63
2021/06/07 21:12:17;;;;;;;11.48;5.63;;;27.40;54.50;;;;;;4936666;29;20039;-63
2021/06/07 21:14:43;;;;;;;13.23;5.38;;;27.30;54.40;;;;;;4938238;29;20098;-63
2021/06/07 21:17:09;;;;;;;7.93;4.50;;;27.40;54.50;;;;;;4943098;29;20952;-63
2021/06/07 21:19:37;;;;;;;10.50;4.78;;;27.40;54.50;;;;;;4936995;29;20059;-63
2021/06/07 21:22:05;;;;;;;8.93;4.40;;;27.40;54.40;;;;;;4919731;29;20035;-63
2021/06/07 21:24:31;;;;;;;9.75;3.70;;;27.30;54.30;;;;;;4919563;29;20032;-63
2021/06/07 21:26:58;;;;;;;11.13;4.70;;;27.30;54.40;;;;;;4919931;29;20075;-63
2021/06/07 21:29:25;;;;;;;6.50;4.15;;;27.40;54.30;;;;;;4949797;28;20082;-63
2021/06/07 21:31:51;;;;;;;8.25;3.95;;;27.40;54.40;;;;;;4954246;28;20549;-62
2021/06/07 21:34:17;;;;;;;7.10;4.72;;;27.30;54.30;;;;;;4942985;29;20140;-63
2021/06/07 21:36:43;;;;;;;9.90;4.35;;;27.40;54.30;;;;;;4951321;28;20043;-63
2021/06/07 21:39:09;;;;;;;8.90;3.95;;;27.40;54.40;;;;;;4955875;28;20425;-63
2021/06/07 21:41:36;;;;;;;8.27;3.67;;;27.40;54.40;;;;;;4947527;29;20517;-63
2021/06/07 21:44:03;;;;;;;8.82;4.00;;;27.40;54.30;;;;;;4936677;29;20059;-63
2021/06/07 21:46:30;;;;;;;7.10;4.03;;;27.50;54.40;;;;;;4936236;29;20483;-63
2021/06/07 21:48:56;;;;;;;6.32;4.85;;;27.40;54.30;;;;;;4919066;29;20040;-62
2021/06/07 21:51:22;;;;;;;5.90;4.20;;;27.50;54.40;;;;;;4939599;28;20046;-61
2021/06/07 21:53:48;;;;;;;6.38;4.53;;;27.50;54.30;;;;;;4936247;29;20053;-62
2021/06/07 21:56:14;;;;;;;9.02;5.00;;;27.50;54.30;;;;;;4919092;29;20044;-63
2021/06/07 21:58:41;;;;;;;6.72;4.25;;;27.50;54.20;;;;;;4918270;29;20043;-63
2021/06/07 22:01:07;;;;;;;7.25;4.78;;;27.50;54.20;;;;;;4934669;29;20051;-63
2021/06/07 22:03:33;;;;;;;8.88;5.60;;;27.50;54.20;;;;;;4943250;29;20036;-63
2021/06/07 22:05:59;;;;;;;10.65;5.85;;;27.50;54.10;;;;;;4908926;29;20036;-62
2021/06/07 22:08:26;;;;;;;9.48;5.50;;;27.50;54.00;;;;;;4917219;29;20491;-62
2021/06/07 22:10:53;;;;;;;8.10;4.95;;;27.50;54.10;;;;;;4905321;29;20059;-61
2021/06/07 22:13:19;;;;;;;7.22;4.50;;;27.50;54.10;;;;;;4936382;29;20452;-63
2021/06/07 22:15:47;;;;;;;5.63;4.20;;;27.50;54.10;;;;;;4935948;29;20102;-62
2021/06/07 22:18:13;;;;;;;12.82;5.20;;;27.50;54.20;;;;;;4936224;29;20059;-63
2021/06/07 22:20:40;;;;;;;11.70;4.65;;;27.50;54.10;;;;;;4935893;29;20094;-62
2021/06/07 22:23:08;;;;;;;7.75;5.43;;;27.50;54.10;;;;;;4936253;29;20036;-62
2021/06/07 22:25:35;;;;;;;8.35;4.40;;;27.50;54.10;;;;;;4935708;29;20428;-62
2021/06/07 22:28:01;;;;;;;7.18;4.38;;;27.50;54.10;;;;;;4935622;29;20074;-63
2021/06/07 22:30:27;;;;;;;8.50;5.22;;;27.50;54.10;;;;;;4899799;29;20437;-62
2021/06/07 22:32:53;;;;;;;11.38;5.80;;;27.50;54.10;;;;;;4917138;29;20100;-62
2021/06/07 22:35:19;;;;;;;6.47;4.28;;;27.50;53.90;;;;;;4928581;29;20038;-61
2021/06/07 22:37:45;;;;;;;8.15;4.25;;;27.50;53.90;;;;;;4918032;29;20063;-63
2021/06/07 22:40:12;;;;;;;12.63;5.65;;;27.50;54.00;;;;;;4935670;29;20036;-63
2021/06/07 22:42:38;;;;;;;7.50;4.93;;;27.50;53.90;;;;;;4918152;29;20438;-64
2021/06/07 22:45:05;;;;;;;8.75;4.47;;;27.50;53.90;;;;;;4935061;29;20523;-62
2021/06/07 22:47:32;;;;;;;9.13;4.90;;;27.50;53.90;;;;;;4918661;29;20074;-61
2021/06/07 22:49:58;;;;;;;4.93;4.28;;;27.50;54.00;;;;;;4918359;29;20040;-61
2021/06/07 22:52:24;;;;;;;8.20;4.72;;;27.50;54.00;;;;;;4935699;29;20178;-62
2021/06/07 22:54:50;;;;;;;8.25;4.57;;;27.50;53.90;;;;;;4935721;29;20032;-62
2021/06/07 22:57:16;;;;;;;8.57;4.93;;;27.50;53.70;;;;;;4902865;29;20059;-63
2021/06/07 22:59:43;;;;;;;5.90;4.07;;;27.50;53.50;;;;;;4934439;29;20027;-62
2021/06/07 23:02:09;;;;;;;6.93;4.22;;;27.40;53.30;;;;;;4934480;29;20492;-63
2021/06/07 23:04:35;;;;;;;7.30;4.20;;;27.40;53.40;;;;;;4902530;29;20500;-62
2021/06/07 23:07:02;;;;;;;7.65;4.60;;;27.40;53.60;;;;;;4934968;29;20050;-62
2021/06/07 23:09:28;;;;;;;6.13;4.05;;;27.40;53.50;;;;;;4917519;29;20035;-62
2021/06/07 23:11:54;;;;;;;6.45;4.00;;;27.40;53.50;;;;;;4932219;29;20099;-62
2021/06/07 23:14:20;;;;;;;7.97;4.32;;;27.40;53.60;;;;;;4936275;28;20484;-62
2021/06/07 23:16:46;;;;;;;9.48;4.63;;;27.40;53.70;;;;;;4956482;28;20546;-63
2021/06/07 23:19:12;;;;;;;7.85;4.38;;;27.40;53.50;;;;;;4955090;28;20046;-63
2021/06/07 23:21:38;;;;;;;8.07;4.70;;;27.40;53.50;;;;;;4954190;28;20039;-64